Federal Yukon — V7RG8 — position and weather

sailwx.info

Track history (hours):
 
Tides and Currents Weather Stations Pressure Air Temp Water Temp Dewpoint Dewpoint Depression Visibility Wind Speed Wind Dir Waves Ship Positions

Federal Yukon

Last reported at 2017-Sep-22 00:54 UTC. Time now 2017-Sep-25 00:35 UTC.
Position N 45°51' W 084°10'.

Length 200 m; draft 7.9 m.

Type: Cargo ship. MMSI: 538006787.

Date/timePositionNaut miles runAvg speedWind from/ knotsBaromVisibWave heightAir tempDewpointWater temp
2017-Sep-22 00:54N 45°51' W 084°10'914.0
2017-Sep-22 00:17N 45°50' W 084°22'513.9
2017-Sep-21 23:57N 45°51' W 084°29'613.7
2017-Sep-21 23:30N 45°50' W 084°38'713.2
2017-Sep-21 23:00N 45°49' W 084°47'713.6
2017-Sep-21 22:30N 45°50' W 084°57'713.8
2017-Sep-21 22:00N 45°50' W 085°07'713.5
2017-Sep-21 21:30N 45°44' W 085°10'714.2
2017-Sep-21 21:00N 45°39' W 085°17'714.6
2017-Sep-21 20:30N 45°33' W 085°24'714.3
2017-Sep-21 20:01N 45°27' W 085°30'714.1
2017-Sep-21 19:30N 45°21' W 085°36'714.3
2017-Sep-21 19:00N 45°16' W 085°41'714.2
2017-Sep-21 18:30N 45°10' W 085°47'  
2017-Sep-17 16:44N 45°22' W 086°14'413.1
2017-Sep-17 16:24N 45°27' W 086°12'613.3
2017-Sep-17 15:59N 45°32' W 086°10'713.3
2017-Sep-17 15:25N 45°39' W 086°07'713.1
2017-Sep-17 14:53N 45°44' W 085°60'512.8
2017-Sep-17 14:30N 45°47' W 085°54'612.6
2017-Sep-17 14:00N 45°50' W 085°47'612.8
2017-Sep-17 13:30N 45°54' W 085°39'713.0
2017-Sep-17 13:00N 45°54' W 085°30'713.1
2017-Sep-17 12:30N 45°53' W 085°21'713.2
2017-Sep-17 12:00N 45°52' W 085°11'713.1
2017-Sep-17 11:30N 45°51' W 085°02'713.1
2017-Sep-17 11:00N 45°50' W 084°53'713.1
2017-Sep-17 10:30N 45°49' W 084°43'612.3
2017-Sep-17 10:00N 45°46' W 084°36'713.3
2017-Sep-17 09:30N 45°42' W 084°28'612.8
2017-Sep-17 09:00N 45°41' W 084°19'612.7
2017-Sep-17 08:30N 45°39' W 084°10'713.5
2017-Sep-17 08:00N 45°36' W 084°01'713.6
2017-Sep-17 07:30N 45°33' W 083°53'713.5
2017-Sep-17 07:00N 45°30' W 083°44'713.4
2017-Sep-17 06:30N 45°28' W 083°35'713.5
2017-Sep-17 06:00N 45°25' W 083°27'713.5
2017-Sep-17 05:30N 45°20' W 083°19'713.5
2017-Sep-17 04:59N 45°15' W 083°12'  
2017-Sep-14 04:40N 45°00' W 074°40'3 7.7
2017-Sep-14 04:18N 45°02' W 074°37'5 7.9
2017-Sep-14 03:41N 45°04' W 074°31'2 8.2
2017-Sep-14 03:27N 45°06' W 074°29'4 9.1
2017-Sep-14 03:00N 45°08' W 074°24'611.4
2017-Sep-14 02:30N 45°12' W 074°18'611.0
2017-Sep-14 02:00N 45°14' W 074°11'4 7.6
2017-Sep-14 01:27N 45°13' W 074°05'4 8.9
2017-Sep-14 00:57N 45°15' W 073°59'4 9.1
2017-Sep-14 00:29N 45°18' W 073°56'0 0.6
2017-Sep-14 00:00N 45°18' W 073°56'1 1.3
2017-Sep-13 23:30N 45°19' W 073°55'0 0.4
2017-Sep-13 23:00N 45°19' W 073°55'2 4.3
2017-Sep-13 22:30N 45°21' W 073°53'510.2
2017-Sep-13 22:00N 45°24' W 073°47'4 8.4
2017-Sep-13 21:30N 45°25' W 073°41'3 5.4
2017-Sep-13 21:00N 45°24' W 073°38'3 5.4
2017-Sep-13 20:30N 45°24' W 073°34'0 0.5
2017-Sep-13 19:58N 45°24' W 073°34'  
Track history (hours):
 
Tides and Currents Weather Stations Pressure Air Temp Water Temp Dewpoint Dewpoint Depression Visibility Wind Speed Wind Dir Waves Ship Positions

Federal Yukon

Last reported at 2017-Sep-22 00:54 UTC. Time now 2017-Sep-25 00:35 UTC.
Position N 45°51' W 084°10'.

Length 200 m; draft 7.9 m.

Type: Cargo ship. MMSI: 538006787.

Date/timePositionNaut miles runAvg speedWind from/ knotsBaromVisibWave heightAir tempDewpointWater temp
2017-Sep-22 00:54N 45°51' W 084°10'914.0
2017-Sep-22 00:17N 45°50' W 084°22'513.9
2017-Sep-21 23:57N 45°51' W 084°29'613.7
2017-Sep-21 23:30N 45°50' W 084°38'713.2
2017-Sep-21 23:00N 45°49' W 084°47'713.6
2017-Sep-21 22:30N 45°50' W 084°57'713.8
2017-Sep-21 22:00N 45°50' W 085°07'713.5
2017-Sep-21 21:30N 45°44' W 085°10'714.2
2017-Sep-21 21:00N 45°39' W 085°17'714.6
2017-Sep-21 20:30N 45°33' W 085°24'714.3
2017-Sep-21 20:01N 45°27' W 085°30'714.1
2017-Sep-21 19:30N 45°21' W 085°36'714.3
2017-Sep-21 19:00N 45°16' W 085°41'714.2
2017-Sep-21 18:30N 45°10' W 085°47'  
2017-Sep-17 16:44N 45°22' W 086°14'413.1
2017-Sep-17 16:24N 45°27' W 086°12'613.3
2017-Sep-17 15:59N 45°32' W 086°10'713.3
2017-Sep-17 15:25N 45°39' W 086°07'713.1
2017-Sep-17 14:53N 45°44' W 085°60'512.8
2017-Sep-17 14:30N 45°47' W 085°54'612.6
2017-Sep-17 14:00N 45°50' W 085°47'612.8
2017-Sep-17 13:30N 45°54' W 085°39'713.0
2017-Sep-17 13:00N 45°54' W 085°30'713.1
2017-Sep-17 12:30N 45°53' W 085°21'713.2
2017-Sep-17 12:00N 45°52' W 085°11'713.1
2017-Sep-17 11:30N 45°51' W 085°02'713.1
2017-Sep-17 11:00N 45°50' W 084°53'713.1
2017-Sep-17 10:30N 45°49' W 084°43'612.3
2017-Sep-17 10:00N 45°46' W 084°36'713.3
2017-Sep-17 09:30N 45°42' W 084°28'612.8
2017-Sep-17 09:00N 45°41' W 084°19'612.7
2017-Sep-17 08:30N 45°39' W 084°10'713.5
2017-Sep-17 08:00N 45°36' W 084°01'713.6
2017-Sep-17 07:30N 45°33' W 083°53'713.5
2017-Sep-17 07:00N 45°30' W 083°44'713.4
2017-Sep-17 06:30N 45°28' W 083°35'713.5
2017-Sep-17 06:00N 45°25' W 083°27'713.5
2017-Sep-17 05:30N 45°20' W 083°19'713.5
2017-Sep-17 04:59N 45°15' W 083°12'  
2017-Sep-14 04:40N 45°00' W 074°40'3 7.7
2017-Sep-14 04:18N 45°02' W 074°37'5 7.9
2017-Sep-14 03:41N 45°04' W 074°31'2 8.2
2017-Sep-14 03:27N 45°06' W 074°29'4 9.1
2017-Sep-14 03:00N 45°08' W 074°24'611.4
2017-Sep-14 02:30N 45°12' W 074°18'611.0
2017-Sep-14 02:00N 45°14' W 074°11'4 7.6
2017-Sep-14 01:27N 45°13' W 074°05'4 8.9
2017-Sep-14 00:57N 45°15' W 073°59'4 9.1
2017-Sep-14 00:29N 45°18' W 073°56'0 0.6
2017-Sep-14 00:00N 45°18' W 073°56'1 1.3
2017-Sep-13 23:30N 45°19' W 073°55'0 0.4
2017-Sep-13 23:00N 45°19' W 073°55'2 4.3
2017-Sep-13 22:30N 45°21' W 073°53'510.2
2017-Sep-13 22:00N 45°24' W 073°47'4 8.4
2017-Sep-13 21:30N 45°25' W 073°41'3 5.4
2017-Sep-13 21:00N 45°24' W 073°38'3 5.4
2017-Sep-13 20:30N 45°24' W 073°34'0 0.5
2017-Sep-13 19:58N 45°24' W 073°34'  

Dump ship's entire track history